Alvo, Nebraska
Current Conditions -  °F | °C
As of 6:54 PM on Wednesday 22 Oct 2014 (Local Time) from KLNK Reporting Station
Moderate Rain Moderate Rain  
Wind Chill: 64°   Ceiling: 6500
Heat Index: 64°   Visibility: 3mi
Dew Point: 61°   Wind: 6mph
Humidity: 90%   Direction: 290°WNW
Pressure: 30.05"   Gusts: NA
Location:  40.87°N, 96.39°W
Report Text: KLNK 222354Z 29005KT 3SM RA BR BKN065 OVC080 18/16 A3005 RMK AO2 SLP173 P0021 60025 T01780161 10267 20178 51027
Loading
Personal Weather Stations






























Interactive Weather Map
Tropical Storm Tracking
New forecast layout! Learn more

10-Day Weather Forecast

Advertisements
Track Severe Weather on mobile